Pagina principale
METAR-TAF:

METAR-TAF

Aeroporti :

Aeroporto di Belgrado-Nikola Tesla

Belgrado, Serbia

latitudine: 44-49N, longitudine: 020-17E, altezza: 96 m

Osservazione

Il bollettino è stato emesso 20 minuti fa, alle 05:30 UTC
Vento 4 kt da sud/sud-ovest
Temperature 1°C
Umidità 80%
Pressione 1027 hPa
Visibilità: 3500 m
foschia

METAR: LYBE 210530Z 21004KT 3500 BR NSC 01/M02 Q1027 NOSIG

Ora: 06:50 (05:50 UTC)

Previsione

Il bollettino è stato emesso 50 minuti fa, alle 05:00 UTC
Previsione valida dal 21 alle 06 UTC al 22 alle 06 UTC
Vento 6 kt da ovest/nord-ovest
Visibilità 10 km o più
nessuna nube inferiore a 1500 m e nessun cumulonembo
Temporaneamente
dal 22 alle 03 UTC al 22 alle 06 UTC
Visibilità: 3000 m
Nuvoloso ad un'altezza di 1500 ft
Nuvoloso ad un'altezza di 3000 ft
pioggia

TAF: LYBE 210500Z 2106/2206 30006KT CAVOK TX13/2113Z TN01/2106Z TEMPO 2203/2206 3000 RA BKN015 BKN030

Osservazioni e previsioni meteorologiche di più di 4000 aeroporti (messaggi METAR e TAF).

Le stazioni disponibili sono rappresentate dai dischi gialli e rossi sulla carta.

Puntare il mouse per vedere il nome della stazione.

Clicca sopra per visualizzare le osservazioni e previsioni meteorologiche.

Per cambiare la mappa : fare clic sui pulsanti verdi con una croce nera per ingrandire, il pulsante verde con un trattino per diminuire, o sulla freccia verde per le mappe adiacenti.


METAR-TAF: